Time,TemperatureF,DewpointF,PressureIn,WindDirection,WindDirectionDegrees,WindSpeedMPH,WindSpeedGustMPH,Humidity,HourlyPrecipIn,Conditions,Clouds,dailyrainin,SoftwareType,DateUTC
2013-03-21 00:00:00,41.3,30.4,29.83,NE,49,0.0,2.0,65,0.00,,SKC,0.00,VWS V13.00,2013-03-21 04:00:00,
2013-03-21 00:05:00,41.0,30.1,29.82,NE,49,0.0,0.0,65,0.00,,SKC,0.00,VWS V13.00,2013-03-21 04:05:00,
2013-03-21 00:10:00,40.7,29.9,29.82,NE,49,0.0,0.0,65,0.00,,SKC,0.00,VWS V13.00,2013-03-21 04:10:00,
2013-03-21 00:15:00,40.4,29.6,29.82,NE,49,0.0,0.0,65,0.00,,SKC,0.00,VWS V13.00,2013-03-21 04:15:00,
2013-03-21 00:20:00,40.1,29.3,29.81,NE,49,0.0,0.0,65,0.00,,SKC,0.00,VWS V13.00,2013-03-21 04:20:00,
2013-03-21 00:25:00,39.8,29.0,29.81,NE,49,2.0,2.0,65,0.00,,SKC,0.00,VWS V13.00,2013-03-21 04:25:00,
2013-03-21 00:30:00,39.5,28.7,29.81,NE,49,1.0,2.0,65,0.00,,SKC,0.00,VWS V13.00,2013-03-21 04:30:00,
2013-03-21 00:35:00,39.3,28.9,29.81,NE,49,0.0,0.0,66,0.00,,SKC,0.00,VWS V13.00,2013-03-21 04:35:00,
2013-03-21 00:40:00,39.1,28.7,29.81,NE,49,2.0,2.0,66,0.00,,SKC,0.00,VWS V13.00,2013-03-21 04:40:00,
2013-03-21 00:45:00,38.8,28.4,29.81,NE,49,0.0,2.0,66,0.00,,SKC,0.00,VWS V13.00,2013-03-21 04:45:00,
2013-03-21 00:50:00,38.5,28.1,29.81,NE,49,0.0,0.0,66,0.00,,SKC,0.00,VWS V13.00,2013-03-21 04:50:00,
2013-03-21 00:55:00,38.3,28.0,29.81,NE,49,0.0,0.0,66,0.00,,SKC,0.00,VWS V13.00,2013-03-21 04:55:00,
2013-03-21 01:00:00,38.0,27.7,29.80,NE,49,0.0,0.0,66,0.00,,SKC,0.00,VWS V13.00,2013-03-21 05:00:00,
2013-03-21 01:05:00,37.9,27.9,29.80,North,355,2.0,2.0,67,0.00,,SKC,0.00,VWS V13.00,2013-03-21 05:05:00,
2013-03-21 01:10:00,37.7,27.8,29.80,NNW,348,1.0,2.0,67,0.00,,SKC,0.00,VWS V13.00,2013-03-21 05:10:00,
2013-03-21 01:15:00,37.5,27.5,29.79,NNW,348,2.0,3.0,67,0.00,,SKC,0.00,VWS V13.00,2013-03-21 05:15:00,
2013-03-21 01:20:00,37.4,27.5,29.79,NNW,348,2.0,2.0,67,0.00,,SKC,0.00,VWS V13.00,2013-03-21 05:20:00,
2013-03-21 01:25:00,37.4,27.5,29.79,NNW,346,3.0,4.0,67,0.00,,SKC,0.00,VWS V13.00,2013-03-21 05:25:00,
2013-03-21 01:30:00,37.4,27.5,29.78,NNW,346,0.0,3.0,67,0.00,,SKC,0.00,VWS V13.00,2013-03-21 05:30:00,
2013-03-21 01:35:00,37.4,27.5,29.77,NNW,346,1.0,2.0,67,0.00,,SKC,0.00,VWS V13.00,2013-03-21 05:35:00,
2013-03-21 01:40:00,37.3,27.4,29.77,NNW,346,0.0,2.0,67,0.00,,SKC,0.00,VWS V13.00,2013-03-21 05:40:00,
2013-03-21 01:45:00,37.2,27.3,29.77,NNW,346,0.0,0.0,67,0.00,,SKC,0.00,VWS V13.00,2013-03-21 05:45:00,
2013-03-21 01:50:00,37.1,27.5,29.76,NNW,346,0.0,0.0,68,0.00,,SKC,0.00,VWS V13.00,2013-03-21 05:50:00,
2013-03-21 01:55:00,37.0,27.4,29.76,NNW,346,0.0,0.0,68,0.00,,SKC,0.00,VWS V13.00,2013-03-21 05:55:00,
2013-03-21 02:00:00,36.8,27.2,29.76,NNW,346,0.0,0.0,68,0.00,,SKC,0.00,VWS V13.00,2013-03-21 06:00:00,
2013-03-21 02:05:00,36.7,27.1,29.76,NNW,346,1.0,2.0,68,0.00,,SKC,0.00,VWS V13.00,2013-03-21 06:05:00,
2013-03-21 02:10:00,36.6,27.0,29.75,NNW,346,1.0,2.0,68,0.00,,SKC,0.00,VWS V13.00,2013-03-21 06:10:00,
2013-03-21 02:15:00,36.5,27.0,29.75,NNW,346,0.0,3.0,68,0.00,,SKC,0.00,VWS V13.00,2013-03-21 06:15:00,
2013-03-21 02:20:00,36.4,27.2,29.74,NNW,346,1.0,3.0,69,0.00,,SKC,0.00,VWS V13.00,2013-03-21 06:20:00,
2013-03-21 02:25:00,36.3,27.1,29.74,NNW,346,0.0,2.0,69,0.00,,SKC,0.00,VWS V13.00,2013-03-21 06:25:00,
2013-03-21 02:30:00,36.3,27.1,29.74,NNW,346,0.0,2.0,69,0.00,,SKC,0.00,VWS V13.00,2013-03-21 06:30:00,
2013-03-21 02:35:00,36.2,27.0,29.74,NNW,346,0.0,0.0,69,0.00,,SKC,0.00,VWS V13.00,2013-03-21 06:35:00,
2013-03-21 02:40:00,36.1,26.9,29.74,NNW,346,0.0,0.0,69,0.00,,SKC,0.00,VWS V13.00,2013-03-21 06:40:00,
2013-03-21 02:45:00,36.0,26.8,29.73,NNW,346,0.0,0.0,69,0.00,,SKC,0.00,VWS V13.00,2013-03-21 06:45:00,
2013-03-21 02:50:00,35.9,26.7,29.73,NNW,346,0.0,0.0,69,0.00,,SKC,0.00,VWS V13.00,2013-03-21 06:50:00,
2013-03-21 02:55:00,35.7,26.5,29.73,NNW,346,0.0,0.0,69,0.00,,SKC,0.00,VWS V13.00,2013-03-21 06:55:00,
2013-03-21 03:00:00,35.7,26.5,29.72,NNW,346,0.0,0.0,69,0.00,,SKC,0.00,VWS V13.00,2013-03-21 07:00:00,
2013-03-21 03:05:00,35.7,26.5,29.72,NNW,346,0.0,0.0,69,0.00,,SKC,0.00,VWS V13.00,2013-03-21 07:05:00,
2013-03-21 03:10:00,35.6,26.8,29.72,NNW,346,0.0,0.0,70,0.00,,SKC,0.00,VWS V13.00,2013-03-21 07:10:00,
2013-03-21 03:15:00,35.5,26.7,29.72,NNW,346,0.0,0.0,70,0.00,,SKC,0.00,VWS V13.00,2013-03-21 07:15:00,
2013-03-21 03:21:00,35.3,26.5,29.72,NNW,346,0.0,0.0,70,0.00,,SKC,0.00,VWS V13.00,2013-03-21 07:21:00,
2013-03-21 03:26:00,35.2,26.4,29.72,NNW,346,0.0,0.0,70,0.00,,SKC,0.00,VWS V13.00,2013-03-21 07:26:00,
2013-03-21 03:31:00,35.1,26.3,29.72,NNW,346,1.0,2.0,70,0.00,,SKC,0.00,VWS V13.00,2013-03-21 07:31:00,
2013-03-21 03:36:00,35.0,26.2,29.72,NNW,346,0.0,2.0,70,0.00,,SKC,0.00,VWS V13.00,2013-03-21 07:36:00,
2013-03-21 03:41:00,34.9,26.1,29.71,NNW,346,0.0,1.0,70,0.00,,SKC,0.00,VWS V13.00,2013-03-21 07:41:00,
2013-03-21 03:46:00,34.8,26.0,29.71,NNW,346,0.0,0.0,70,0.00,,SKC,0.00,VWS V13.00,2013-03-21 07:46:00,
2013-03-21 03:51:00,34.8,26.0,29.71,NNW,346,0.0,0.0,70,0.00,,SKC,0.00,VWS V13.00,2013-03-21 07:51:00,
2013-03-21 03:56:00,34.8,26.4,29.70,NNW,346,2.0,2.0,71,0.00,,SKC,0.00,VWS V13.00,2013-03-21 07:56:00,
2013-03-21 04:01:00,34.8,26.4,29.70,NNW,346,0.0,2.0,71,0.00,,SKC,0.00,VWS V13.00,2013-03-21 08:01:00,
2013-03-21 04:06:00,34.7,26.3,29.70,NNW,346,0.0,1.0,71,0.00,,SKC,0.00,VWS V13.00,2013-03-21 08:06:00,
2013-03-21 04:11:00,34.6,26.2,29.70,NNW,346,0.0,0.0,71,0.00,,SKC,0.00,VWS V13.00,2013-03-21 08:11:00,
2013-03-21 04:16:00,34.5,26.1,29.70,NNW,346,0.0,0.0,71,0.00,,SKC,0.00,VWS V13.00,2013-03-21 08:16:00,
2013-03-21 04:22:00,34.4,26.0,29.70,NNW,346,0.0,0.0,71,0.00,,SKC,0.00,VWS V13.00,2013-03-21 08:22:00,
2013-03-21 04:27:00,34.4,26.0,29.70,NNW,346,0.0,0.0,71,0.00,,SKC,0.00,VWS V13.00,2013-03-21 08:27:00,
2013-03-21 04:32:00,34.4,26.0,29.69,NNW,346,0.0,0.0,71,0.00,,SKC,0.00,VWS V13.00,2013-03-21 08:32:00,
2013-03-21 04:37:00,34.4,26.0,29.69,NNW,346,0.0,0.0,71,0.00,,SKC,0.00,VWS V13.00,2013-03-21 08:37:00,
2013-03-21 04:42:00,34.4,26.0,29.69,NNW,346,0.0,0.0,71,0.00,,SKC,0.00,VWS V13.00,2013-03-21 08:42:00,
2013-03-21 04:47:00,34.2,25.8,29.69,NNW,346,0.0,0.0,71,0.00,,SKC,0.00,VWS V13.00,2013-03-21 08:47:00,
2013-03-21 04:52:00,34.1,26.0,29.69,NNW,346,0.0,0.0,72,0.00,,SKC,0.00,VWS V13.00,2013-03-21 08:52:00,
2013-03-21 04:57:00,34.0,25.9,29.69,NNW,346,0.0,0.0,72,0.00,,SKC,0.00,VWS V13.00,2013-03-21 08:57:00,
2013-03-21 05:02:00,33.9,25.8,29.70,NNW,346,1.0,1.0,72,0.00,,SKC,0.00,VWS V13.00,2013-03-21 09:02:00,
2013-03-21 05:07:00,33.8,25.7,29.70,NNW,346,3.0,3.0,72,0.00,,SKC,0.00,VWS V13.00,2013-03-21 09:07:00,
2013-03-21 05:12:00,33.8,25.7,29.70,NNW,346,2.0,2.0,72,0.00,,SKC,0.00,VWS V13.00,2013-03-21 09:12:00,
2013-03-21 05:16:00,33.7,25.6,29.70,NNW,346,2.0,2.0,72,0.00,,SKC,0.00,VWS V13.00,2013-03-21 09:16:00,
2013-03-21 05:21:00,33.7,25.6,29.70,NNW,346,0.0,0.0,72,0.00,,SKC,0.00,VWS V13.00,2013-03-21 09:21:00,
2013-03-21 05:26:00,33.6,25.5,29.70,NNW,346,0.0,0.0,72,0.00,,SKC,0.00,VWS V13.00,2013-03-21 09:26:00,
2013-03-21 05:31:00,33.6,25.5,29.70,NNW,346,0.0,0.0,72,0.00,,SKC,0.00,VWS V13.00,2013-03-21 09:31:00,
2013-03-21 05:36:00,33.6,25.5,29.70,NNW,346,0.0,0.0,72,0.00,,SKC,0.00,VWS V13.00,2013-03-21 09:36:00,
2013-03-21 05:41:00,33.5,25.5,29.70,NNW,346,2.0,2.0,72,0.00,,SKC,0.00,VWS V13.00,2013-03-21 09:41:00,
2013-03-21 05:46:00,33.5,25.5,29.70,NNW,346,2.0,2.0,72,0.00,,SKC,0.00,VWS V13.00,2013-03-21 09:46:00,
2013-03-21 05:51:00,33.5,25.8,29.72,NW,304,6.0,6.0,73,0.00,,SKC,0.00,VWS V13.00,2013-03-21 09:51:00,
2013-03-21 05:56:00,33.9,26.2,29.72,WNW,293,4.0,5.0,73,0.00,,SKC,0.00,VWS V13.00,2013-03-21 09:56:00,
2013-03-21 06:01:00,35.1,27.3,29.72,NW,311,0.0,2.0,73,0.00,,SKC,0.00,VWS V13.00,2013-03-21 10:01:00,
2013-03-21 06:06:00,36.4,28.6,29.72,NW,321,6.0,7.0,73,0.00,,SKC,0.00,VWS V13.00,2013-03-21 10:06:00,
2013-03-21 06:11:00,37.1,29.3,29.72,WNW,296,4.0,4.0,73,0.00,,SKC,0.00,VWS V13.00,2013-03-21 10:11:00,
2013-03-21 06:16:00,37.5,29.6,29.72,NW,305,4.0,6.0,73,0.00,,SKC,0.00,VWS V13.00,2013-03-21 10:16:00,
2013-03-21 06:21:00,37.7,29.8,29.72,NNW,340,3.0,3.0,73,0.00,,SKC,0.00,VWS V13.00,2013-03-21 10:21:00,
2013-03-21 06:26:00,37.7,29.8,29.72,NNW,344,2.0,2.0,73,0.00,,SKC,0.00,VWS V13.00,2013-03-21 10:26:00,
2013-03-21 06:31:00,37.8,29.9,29.72,North,355,2.0,2.0,73,0.00,,SKC,0.00,VWS V13.00,2013-03-21 10:31:00,
2013-03-21 06:37:00,37.9,30.0,29.72,NNW,329,4.0,4.0,73,0.00,,SKC,0.00,VWS V13.00,2013-03-21 10:37:00,
2013-03-21 06:42:00,37.9,30.0,29.72,NW,304,6.0,7.0,73,0.00,,SKC,0.00,VWS V13.00,2013-03-21 10:42:00,
2013-03-21 06:47:00,37.8,29.9,29.72,NNW,332,5.0,5.0,73,0.00,,SKC,0.00,VWS V13.00,2013-03-21 10:47:00,
2013-03-21 06:52:00,37.7,29.8,29.72,NNW,332,2.0,3.0,73,0.00,,SKC,0.00,VWS V13.00,2013-03-21 10:52:00,
2013-03-21 06:57:00,37.5,29.6,29.72,NNW,342,3.0,4.0,73,0.00,,SKC,0.00,VWS V13.00,2013-03-21 10:57:00,
2013-03-21 07:02:00,37.4,29.5,29.72,NW,318,2.0,5.0,73,0.00,,SKC,0.00,VWS V13.00,2013-03-21 11:02:00,
2013-03-21 07:07:00,37.2,29.4,29.72,NNW,327,0.0,0.0,73,0.00,,SKC,0.00,VWS V13.00,2013-03-21 11:07:00,
2013-03-21 07:12:00,37.0,29.2,29.72,NNW,341,5.0,6.0,73,0.00,,SKC,0.00,VWS V13.00,2013-03-21 11:12:00,
2013-03-21 07:17:00,36.8,29.0,29.72,NW,317,2.0,3.0,73,0.00,,SKC,0.00,VWS V13.00,2013-03-21 11:17:00,
2013-03-21 07:22:00,36.7,28.9,29.72,NNW,331,3.0,3.0,73,0.00,,SKC,0.00,VWS V13.00,2013-03-21 11:22:00,
2013-03-21 07:27:00,36.6,28.8,29.72,NNW,346,1.0,3.0,73,0.00,,SKC,0.00,VWS V13.00,2013-03-21 11:27:00,
2013-03-21 07:32:00,36.5,28.7,29.72,NNW,335,2.0,3.0,73,0.00,,SKC,0.00,VWS V13.00,2013-03-21 11:32:00,
2013-03-21 07:37:00,36.5,28.7,29.72,NNW,338,1.0,2.0,73,0.00,,SKC,0.00,VWS V13.00,2013-03-21 11:37:00,
2013-03-21 07:42:00,36.6,28.8,29.72,North,355,2.0,3.0,73,0.00,,SKC,0.00,VWS V13.00,2013-03-21 11:42:00,
2013-03-21 07:47:00,36.8,29.0,29.72,NNW,328,2.0,3.0,73,0.00,,SKC,0.00,VWS V13.00,2013-03-21 11:47:00,
2013-03-21 07:52:00,36.9,29.1,29.72,NW,322,1.0,3.0,73,0.00,,SKC,0.00,VWS V13.00,2013-03-21 11:52:00,
2013-03-21 07:57:00,37.2,29.4,29.72,NNW,328,0.0,5.0,73,0.00,,SKC,0.00,VWS V13.00,2013-03-21 11:57:00,
2013-03-21 08:02:00,37.5,29.6,29.72,NW,318,0.0,2.0,73,0.00,,SKC,0.00,VWS V13.00,2013-03-21 12:02:00,
2013-03-21 08:07:00,37.8,29.9,29.72,NNW,347,3.0,8.0,73,0.00,,SKC,0.00,VWS V13.00,2013-03-21 12:07:00,
2013-03-21 08:12:00,38.2,30.3,29.73,WNW,298,5.0,6.0,73,0.00,,SKC,0.00,VWS V13.00,2013-03-21 12:12:00,
2013-03-21 08:17:00,38.7,30.8,29.72,North,5,4.0,9.0,73,0.00,,SKC,0.00,VWS V13.00,2013-03-21 12:17:00,
2013-03-21 08:22:00,39.2,31.3,29.72,NNW,336,5.0,6.0,73,0.00,,SKC,0.00,VWS V13.00,2013-03-21 12:22:00,
2013-03-21 08:27:00,39.6,31.7,29.72,NNW,332,5.0,6.0,73,0.00,,SKC,0.00,VWS V13.00,2013-03-21 12:27:00,
2013-03-21 08:32:00,40.0,31.7,29.73,NW,318,4.0,9.0,72,0.00,,SKC,0.00,VWS V13.00,2013-03-21 12:32:00,
2013-03-21 08:37:00,40.4,32.1,29.73,North,355,1.0,10.0,72,0.00,,SKC,0.00,VWS V13.00,2013-03-21 12:37:00,
2013-03-21 08:42:00,40.7,32.4,29.73,NNW,342,4.0,5.0,72,0.00,,SKC,0.00,VWS V13.00,2013-03-21 12:42:00,
2013-03-21 08:47:00,41.0,32.7,29.73,NNW,335,8.0,12.0,72,0.00,,SKC,0.00,VWS V13.00,2013-03-21 12:47:00,
2013-03-21 08:52:00,41.4,33.1,29.73,NW,306,4.0,9.0,72,0.00,,SKC,0.00,VWS V13.00,2013-03-21 12:52:00,
2013-03-21 08:57:00,41.8,33.5,29.72,NW,325,5.0,10.0,72,0.00,,SKC,0.00,VWS V13.00,2013-03-21 12:57:00,
2013-03-21 09:02:00,42.1,33.7,29.72,NNW,348,4.0,8.0,72,0.00,,SKC,0.00,VWS V13.00,2013-03-21 13:02:00,
2013-03-21 09:07:00,42.4,34.0,29.73,NNW,329,11.0,11.0,72,0.00,,SKC,0.00,VWS V13.00,2013-03-21 13:07:00,
2013-03-21 09:12:00,42.8,34.1,29.72,North,355,5.0,7.0,71,0.00,,SKC,0.00,VWS V13.00,2013-03-21 13:12:00,
2013-03-21 09:17:00,43.2,34.5,29.72,NNW,331,2.0,12.0,71,0.00,,SKC,0.00,VWS V13.00,2013-03-21 13:17:00,
2013-03-21 09:22:00,43.6,34.8,29.73,NNW,329,7.0,9.0,71,0.00,,SKC,0.00,VWS V13.00,2013-03-21 13:22:00,
2013-03-21 09:27:00,43.9,35.1,29.72,NW,313,8.0,8.0,71,0.00,,SKC,0.00,VWS V13.00,2013-03-21 13:27:00,
2013-03-21 09:32:00,44.3,35.5,29.72,North,355,7.0,13.0,71,0.00,,SKC,0.00,VWS V13.00,2013-03-21 13:32:00,
2013-03-21 09:37:00,44.7,35.9,29.72,NW,309,4.0,6.0,71,0.00,,SKC,0.00,VWS V13.00,2013-03-21 13:37:00,
2013-03-21 09:42:00,45.0,35.8,29.72,NW,323,4.0,9.0,70,0.00,,SKC,0.00,VWS V13.00,2013-03-21 13:42:00,
2013-03-21 09:47:00,45.5,36.3,29.72,NW,325,6.0,9.0,70,0.00,,SKC,0.00,VWS V13.00,2013-03-21 13:47:00,
2013-03-21 09:52:00,46.0,36.8,29.72,NW,325,15.0,15.0,70,0.00,,SKC,0.00,VWS V13.00,2013-03-21 13:52:00,
2013-03-21 09:57:00,46.6,37.3,29.73,NW,315,5.0,8.0,70,0.00,,SKC,0.00,VWS V13.00,2013-03-21 13:57:00,
2013-03-21 10:02:00,46.9,37.6,29.72,West,260,6.0,9.0,70,0.00,,SKC,0.00,VWS V13.00,2013-03-21 14:02:00,
2013-03-21 10:07:00,47.3,37.7,29.72,NW,325,7.0,9.0,69,0.00,,SKC,0.00,VWS V13.00,2013-03-21 14:07:00,
2013-03-21 10:12:00,47.8,38.1,29.72,North,5,4.0,9.0,69,0.00,,SKC,0.00,VWS V13.00,2013-03-21 14:12:00,
2013-03-21 10:17:00,48.0,38.3,29.72,NW,313,8.0,13.0,69,0.00,,SKC,0.00,VWS V13.00,2013-03-21 14:17:00,
2013-03-21 10:22:00,48.3,38.6,29.72,NNW,329,4.0,7.0,69,0.00,,SKC,0.00,VWS V13.00,2013-03-21 14:22:00,
2013-03-21 10:27:00,48.8,39.1,29.72,NW,314,6.0,6.0,69,0.00,,SKC,0.00,VWS V13.00,2013-03-21 14:27:00,
2013-03-21 10:32:00,49.2,39.5,29.72,NNW,327,4.0,8.0,69,0.00,,SKC,0.00,VWS V13.00,2013-03-21 14:32:00,
2013-03-21 10:37:00,49.5,39.4,29.73,West,268,7.0,9.0,68,0.00,,SKC,0.00,VWS V13.00,2013-03-21 14:37:00,
2013-03-21 10:42:00,49.8,39.7,29.73,NW,317,13.0,13.0,68,0.00,,SKC,0.00,VWS V13.00,2013-03-21 14:42:00,
2013-03-21 10:47:00,50.2,40.1,29.73,West,262,6.0,12.0,68,0.00,,SKC,0.00,VWS V13.00,2013-03-21 14:47:00,
2013-03-21 10:52:00,50.2,39.7,29.73,NW,311,5.0,11.0,67,0.00,,SKC,0.00,VWS V13.00,2013-03-21 14:52:00,
2013-03-21 10:57:00,50.2,39.7,29.73,NNW,338,4.0,10.0,67,0.00,,SKC,0.00,VWS V13.00,2013-03-21 14:57:00,
2013-03-21 11:02:00,50.4,39.9,29.73,NW,320,10.0,11.0,67,0.00,,SKC,0.00,VWS V13.00,2013-03-21 15:02:00,
2013-03-21 11:07:00,50.4,39.5,29.73,West,273,11.0,13.0,66,0.00,,SKC,0.00,VWS V13.00,2013-03-21 15:07:00,
2013-03-21 11:12:00,50.4,39.5,29.72,North,355,5.0,10.0,66,0.00,,SKC,0.00,VWS V13.00,2013-03-21 15:12:00,
2013-03-21 11:18:00,50.8,39.9,29.73,WNW,299,14.0,14.0,66,0.00,,SKC,0.00,VWS V13.00,2013-03-21 15:18:00,
2013-03-21 11:23:00,51.3,40.3,29.72,WNW,302,6.0,12.0,66,0.00,,SKC,0.00,VWS V13.00,2013-03-21 15:23:00,
2013-03-21 11:28:00,51.5,40.5,29.72,NNW,344,5.0,13.0,66,0.00,,SKC,0.00,VWS V13.00,2013-03-21 15:28:00,
2013-03-21 11:33:00,51.8,40.4,29.72,NW,312,17.0,17.0,65,0.00,,SKC,0.00,VWS V13.00,2013-03-21 15:33:00,
2013-03-21 11:38:00,51.9,40.5,29.72,WNW,291,6.0,15.0,65,0.00,,SKC,0.00,VWS V13.00,2013-03-21 15:38:00,
2013-03-21 11:43:00,52.2,40.8,29.72,NW,311,12.0,17.0,65,0.00,,SKC,0.00,VWS V13.00,2013-03-21 15:43:00,
2013-03-21 11:47:00,52.2,40.4,29.72,NW,317,8.0,18.0,64,0.00,,SKC,0.00,VWS V13.00,2013-03-21 15:47:00,
2013-03-21 11:52:00,52.2,40.4,29.73,West,263,8.0,11.0,64,0.00,,SKC,0.00,VWS V13.00,2013-03-21 15:52:00,
2013-03-21 11:57:00,52.6,40.4,29.72,WNW,286,6.0,12.0,63,0.00,,SKC,0.00,VWS V13.00,2013-03-21 15:57:00,
2013-03-21 12:02:00,52.9,40.7,29.72,NW,325,8.0,10.0,63,0.00,,SKC,0.00,VWS V13.00,2013-03-21 16:02:00,
2013-03-21 12:07:00,53.4,41.1,29.72,NW,323,7.0,11.0,63,0.00,,SKC,0.00,VWS V13.00,2013-03-21 16:07:00,
2013-03-21 12:12:00,53.8,41.1,29.72,NW,322,11.0,11.0,62,0.00,,SKC,0.00,VWS V13.00,2013-03-21 16:12:00,
2013-03-21 12:18:00,53.4,40.7,29.72,North,350,9.0,10.0,62,0.00,,SKC,0.00,VWS V13.00,2013-03-21 16:18:00,
2013-03-21 12:23:00,53.8,41.1,29.72,WSW,257,8.0,13.0,62,0.00,,SKC,0.00,VWS V13.00,2013-03-21 16:23:00,
2013-03-21 12:28:00,53.9,40.8,29.72,NW,307,12.0,12.0,61,0.00,,SKC,0.00,VWS V13.00,2013-03-21 16:28:00,
2013-03-21 12:33:00,53.5,40.4,29.73,WNW,284,6.0,12.0,61,0.00,,SKC,0.00,VWS V13.00,2013-03-21 16:33:00,
2013-03-21 12:38:00,53.4,40.3,29.73,NNW,329,3.0,12.0,61,0.00,,SKC,0.00,VWS V13.00,2013-03-21 16:38:00,
2013-03-21 12:43:00,53.6,40.1,29.73,WNW,298,18.0,19.0,60,0.00,,SKC,0.00,VWS V13.00,2013-03-21 16:43:00,
2013-03-21 12:48:00,53.7,40.6,29.73,NNW,341,7.0,17.0,61,0.00,,SKC,0.00,VWS V13.00,2013-03-21 16:48:00,
2013-03-21 12:53:00,54.1,40.5,29.73,NW,324,12.0,17.0,60,0.00,,SKC,0.00,VWS V13.00,2013-03-21 16:53:00,
2013-03-21 12:58:00,54.4,40.4,29.73,NNW,328,13.0,13.0,59,0.00,,SKC,0.00,VWS V13.00,2013-03-21 16:58:00,
2013-03-21 13:03:00,54.1,40.1,29.73,NW,312,5.0,11.0,59,0.00,,SKC,0.00,VWS V13.00,2013-03-21 17:03:00,
2013-03-21 13:08:00,54.5,40.5,29.73,WNW,296,0.0,14.0,59,0.00,,SKC,0.00,VWS V13.00,2013-03-21 17:08:00,
2013-03-21 13:13:00,54.9,40.4,29.73,West,279,16.0,19.0,58,0.00,,SKC,0.00,VWS V13.00,2013-03-21 17:13:00,
2013-03-21 13:18:00,55.0,40.5,29.74,WNW,290,9.0,11.0,58,0.00,,SKC,0.00,VWS V13.00,2013-03-21 17:18:00,
2013-03-21 13:23:00,54.7,39.8,29.74,WNW,288,8.0,12.0,57,0.00,,SKC,0.00,VWS V13.00,2013-03-21 17:23:00,
2013-03-21 13:28:00,54.4,39.5,29.74,WSW,246,9.0,19.0,57,0.00,,SKC,0.00,VWS V13.00,2013-03-21 17:28:00,
2013-03-21 13:33:00,54.4,39.5,29.74,WNW,288,5.0,13.0,57,0.00,,SKC,0.00,VWS V13.00,2013-03-21 17:33:00,
2013-03-21 13:38:00,54.7,39.3,29.74,WNW,294,4.0,15.0,56,0.00,,SKC,0.00,VWS V13.00,2013-03-21 17:38:00,
2013-03-21 13:43:00,54.8,39.4,29.73,NW,304,3.0,13.0,56,0.00,,SKC,0.00,VWS V13.00,2013-03-21 17:43:00,
2013-03-21 13:48:00,55.3,39.9,29.74,NW,304,7.0,19.0,56,0.00,,SKC,0.00,VWS V13.00,2013-03-21 17:48:00,
2013-03-21 13:53:00,55.6,39.7,29.73,NW,309,12.0,16.0,55,0.00,,SKC,0.00,VWS V13.00,2013-03-21 17:53:00,
2013-03-21 13:58:00,55.4,39.0,29.73,West,275,8.0,15.0,54,0.00,,SKC,0.00,VWS V13.00,2013-03-21 17:58:00,
2013-03-21 14:03:00,55.0,38.7,29.73,West,271,17.0,18.0,54,0.00,,SKC,0.00,VWS V13.00,2013-03-21 18:03:00,
2013-03-21 14:08:00,55.1,38.8,29.73,NW,315,8.0,14.0,54,0.00,,SKC,0.00,VWS V13.00,2013-03-21 18:08:00,
2013-03-21 14:13:00,55.5,39.1,29.73,NNW,344,6.0,14.0,54,0.00,,SKC,0.00,VWS V13.00,2013-03-21 18:13:00,
2013-03-21 14:18:00,55.5,38.7,29.73,WNW,293,7.0,11.0,53,0.00,,SKC,0.00,VWS V13.00,2013-03-21 18:18:00,
2013-03-21 14:23:00,55.7,38.4,29.73,WNW,299,9.0,11.0,52,0.00,,SKC,0.00,VWS V13.00,2013-03-21 18:23:00,
2013-03-21 14:28:00,55.8,38.5,29.73,NNW,346,10.0,14.0,52,0.00,,SKC,0.00,VWS V13.00,2013-03-21 18:28:00,
2013-03-21 14:33:00,56.0,38.6,29.73,West,273,5.0,17.0,52,0.00,,SKC,0.00,VWS V13.00,2013-03-21 18:33:00,
2013-03-21 14:38:00,55.9,38.0,29.73,WSW,254,9.0,14.0,51,0.00,,SKC,0.00,VWS V13.00,2013-03-21 18:38:00,
2013-03-21 14:43:00,56.0,38.6,29.72,NNW,329,14.0,15.0,52,0.00,,SKC,0.00,VWS V13.00,2013-03-21 18:43:00,
2013-03-21 14:48:00,56.1,38.2,29.72,WNW,286,11.0,17.0,51,0.00,,SKC,0.00,VWS V13.00,2013-03-21 18:48:00,
2013-03-21 14:53:00,56.1,37.7,29.72,West,274,5.0,15.0,50,0.00,,SKC,0.00,VWS V13.00,2013-03-21 18:53:00,
2013-03-21 14:58:00,56.3,37.9,29.72,West,280,5.0,13.0,50,0.00,,SKC,0.00,VWS V13.00,2013-03-21 18:58:00,
2013-03-21 15:03:00,56.3,37.4,29.72,SW,234,6.0,17.0,49,0.00,,SKC,0.00,VWS V13.00,2013-03-21 19:03:00,
2013-03-21 15:08:00,56.2,37.8,29.73,NNW,340,8.0,16.0,50,0.00,,SKC,0.00,VWS V13.00,2013-03-21 19:08:00,
2013-03-21 15:13:00,56.2,37.3,29.72,West,262,5.0,14.0,49,0.00,,SKC,0.00,VWS V13.00,2013-03-21 19:13:00,
2013-03-21 15:18:00,56.2,37.3,29.72,NW,308,8.0,17.0,49,0.00,,SKC,0.00,VWS V13.00,2013-03-21 19:18:00,
2013-03-21 15:23:00,55.9,36.5,29.72,SW,221,8.0,16.0,48,0.00,,SKC,0.00,VWS V13.00,2013-03-21 19:23:00,
2013-03-21 15:28:00,55.8,36.4,29.73,NW,304,8.0,15.0,48,0.00,,SKC,0.00,VWS V13.00,2013-03-21 19:28:00,
2013-03-21 15:33:00,54.5,35.2,29.73,WNW,288,10.0,18.0,48,0.00,,SKC,0.00,VWS V13.00,2013-03-21 19:33:00,
2013-03-21 15:38:00,53.5,34.3,29.73,West,273,11.0,21.0,48,0.00,,SKC,0.00,VWS V13.00,2013-03-21 19:38:00,
2013-03-21 15:43:00,53.5,34.3,29.73,WNW,287,7.0,16.0,48,0.00,,SKC,0.00,VWS V13.00,2013-03-21 19:43:00,
2013-03-21 15:48:00,53.7,34.5,29.73,NW,321,9.0,13.0,48,0.00,,SKC,0.00,VWS V13.00,2013-03-21 19:48:00,
2013-03-21 15:53:00,54.1,34.9,29.73,WNW,300,6.0,18.0,48,0.00,,SKC,0.00,VWS V13.00,2013-03-21 19:53:00,
2013-03-21 15:58:00,54.2,34.4,29.74,NW,312,6.0,17.0,47,0.00,,SKC,0.00,VWS V13.00,2013-03-21 19:58:00,
2013-03-21 16:03:00,53.7,34.0,29.74,NW,319,9.0,12.0,47,0.00,,SKC,0.00,VWS V13.00,2013-03-21 20:03:00,
2013-03-21 16:08:00,53.7,34.0,29.74,WNW,296,4.0,16.0,47,0.00,,SKC,0.00,VWS V13.00,2013-03-21 20:08:00,
2013-03-21 16:13:00,53.6,33.9,29.74,WNW,291,8.0,15.0,47,0.00,,SKC,0.00,VWS V13.00,2013-03-21 20:13:00,
2013-03-21 16:18:00,53.0,33.3,29.74,WNW,300,3.0,14.0,47,0.00,,SKC,0.00,VWS V13.00,2013-03-21 20:18:00,
2013-03-21 16:23:00,52.8,33.2,29.74,West,271,4.0,15.0,47,0.00,,SKC,0.00,VWS V13.00,2013-03-21 20:23:00,
2013-03-21 16:28:00,52.4,32.2,29.74,WSW,252,8.0,19.0,46,0.00,,SKC,0.00,VWS V13.00,2013-03-21 20:28:00,
2013-03-21 16:33:00,52.0,32.4,29.74,NW,315,4.0,11.0,47,0.00,,SKC,0.00,VWS V13.00,2013-03-21 20:33:00,
2013-03-21 16:38:00,52.4,32.8,29.74,West,281,11.0,18.0,47,0.00,,SKC,0.00,VWS V13.00,2013-03-21 20:38:00,
2013-03-21 16:43:00,52.7,33.0,29.74,NNW,336,2.0,10.0,47,0.00,,SKC,0.00,VWS V13.00,2013-03-21 20:43:00,
2013-03-21 16:48:00,53.0,33.3,29.74,NW,321,7.0,9.0,47,0.00,,SKC,0.00,VWS V13.00,2013-03-21 20:48:00,
2013-03-21 16:53:00,53.2,33.0,29.74,NNW,336,13.0,14.0,46,0.00,,SKC,0.00,VWS V13.00,2013-03-21 20:53:00,
2013-03-21 16:58:00,53.1,32.9,29.74,WNW,284,17.0,17.0,46,0.00,,SKC,0.00,VWS V13.00,2013-03-21 20:58:00,
2013-03-21 17:03:00,52.4,32.8,29.75,NNW,338,6.0,17.0,47,0.00,,SKC,0.00,VWS V13.00,2013-03-21 21:03:00,
2013-03-21 17:08:00,51.5,32.0,29.75,NW,315,11.0,20.0,47,0.00,,SKC,0.00,VWS V13.00,2013-03-21 21:08:00,
2013-03-21 17:13:00,50.6,31.6,29.76,NW,319,4.0,11.0,48,0.00,,SKC,0.00,VWS V13.00,2013-03-21 21:13:00,
2013-03-21 17:18:00,50.4,32.0,29.76,North,355,7.0,14.0,49,0.00,,SKC,0.00,VWS V13.00,2013-03-21 21:18:00,
2013-03-21 17:23:00,50.3,32.4,29.76,NNW,328,12.0,13.0,50,0.00,,SKC,0.00,VWS V13.00,2013-03-21 21:23:00,
2013-03-21 17:28:00,49.9,32.0,29.76,North,5,2.0,15.0,50,0.00,,SKC,0.00,VWS V13.00,2013-03-21 21:28:00,
2013-03-21 17:33:00,49.5,31.6,29.76,NNW,329,8.0,8.0,50,0.00,,SKC,0.00,VWS V13.00,2013-03-21 21:33:00,
2013-03-21 17:38:00,49.2,31.4,29.76,NNW,340,3.0,10.0,50,0.00,,SKC,0.00,VWS V13.00,2013-03-21 21:38:00,
2013-03-21 17:43:00,49.0,31.7,29.76,WNW,296,4.0,10.0,51,0.00,,SKC,0.00,VWS V13.00,2013-03-21 21:43:00,
2013-03-21 17:48:00,48.9,31.6,29.77,North,355,11.0,12.0,51,0.00,,SKC,0.00,VWS V13.00,2013-03-21 21:48:00,
2013-03-21 17:53:00,48.7,31.4,29.77,NNW,348,4.0,12.0,51,0.00,,SKC,0.00,VWS V13.00,2013-03-21 21:53:00,
2013-03-21 17:58:00,48.5,31.2,29.77,NW,320,9.0,12.0,51,0.00,,SKC,0.00,VWS V13.00,2013-03-21 21:58:00,
2013-03-21 18:03:00,48.3,31.0,29.77,NW,319,10.0,13.0,51,0.00,,SKC,0.00,VWS V13.00,2013-03-21 22:03:00,
2013-03-21 18:08:00,48.1,30.8,29.78,North,11,6.0,9.0,51,0.00,,SKC,0.00,VWS V13.00,2013-03-21 22:08:00,
2013-03-21 18:13:00,48.0,30.8,29.78,North,355,4.0,8.0,51,0.00,,SKC,0.00,VWS V13.00,2013-03-21 22:13:00,
2013-03-21 18:18:00,48.1,31.3,29.78,NW,324,6.0,10.0,52,0.00,,SKC,0.00,VWS V13.00,2013-03-21 22:18:00,
2013-03-21 18:23:00,47.9,30.7,29.78,NNW,329,4.0,9.0,51,0.00,,SKC,0.00,VWS V13.00,2013-03-21 22:23:00,
2013-03-21 18:28:00,47.8,30.6,29.79,West,266,6.0,9.0,51,0.00,,SKC,0.00,VWS V13.00,2013-03-21 22:28:00,
2013-03-21 18:33:00,47.8,30.6,29.79,WNW,284,4.0,13.0,51,0.00,,SKC,0.00,VWS V13.00,2013-03-21 22:33:00,
2013-03-21 18:38:00,47.7,29.5,29.79,NW,313,8.0,14.0,49,0.00,,SKC,0.00,VWS V13.00,2013-03-21 22:38:00,
2013-03-21 18:43:00,47.6,28.9,29.79,WNW,284,14.0,18.0,48,0.00,,SKC,0.00,VWS V13.00,2013-03-21 22:43:00,
2013-03-21 18:48:00,47.5,28.8,29.80,WNW,284,9.0,13.0,48,0.00,,SKC,0.00,VWS V13.00,2013-03-21 22:48:00,
2013-03-21 18:53:00,47.4,28.2,29.80,NW,323,9.0,14.0,47,0.00,,SKC,0.00,VWS V13.00,2013-03-21 22:53:00,
2013-03-21 18:58:00,47.3,28.1,29.81,NNW,333,10.0,12.0,47,0.00,,SKC,0.00,VWS V13.00,2013-03-21 22:58:00,
2013-03-21 19:03:00,47.1,27.4,29.81,NW,321,4.0,12.0,46,0.00,,SKC,0.00,VWS V13.00,2013-03-21 23:03:00,
2013-03-21 19:08:00,46.9,27.2,29.82,WNW,302,8.0,15.0,46,0.00,,SKC,0.00,VWS V13.00,2013-03-21 23:08:00,
2013-03-21 19:13:00,46.8,27.1,29.82,NW,304,13.0,16.0,46,0.00,,SKC,0.00,VWS V13.00,2013-03-21 23:13:00,
2013-03-21 19:18:00,46.6,26.9,29.82,WNW,290,9.0,12.0,46,0.00,,SKC,0.00,VWS V13.00,2013-03-21 23:18:00,
2013-03-21 19:23:00,46.4,26.8,29.83,NW,317,5.0,19.0,46,0.00,,SKC,0.00,VWS V13.00,2013-03-21 23:23:00,
2013-03-21 19:28:00,46.3,26.7,29.83,NW,306,5.0,8.0,46,0.00,,SKC,0.00,VWS V13.00,2013-03-21 23:28:00,
2013-03-21 19:33:00,46.1,26.0,29.83,WNW,293,2.0,19.0,45,0.00,,SKC,0.00,VWS V13.00,2013-03-21 23:33:00,
2013-03-21 19:38:00,45.8,26.2,29.83,NW,305,10.0,17.0,46,0.00,,SKC,0.00,VWS V13.00,2013-03-21 23:38:00,
2013-03-21 19:43:00,45.7,25.6,29.84,WNW,292,6.0,13.0,45,0.00,,SKC,0.00,VWS V13.00,2013-03-21 23:43:00,
2013-03-21 19:48:00,45.5,25.4,29.84,NW,311,14.0,15.0,45,0.00,,SKC,0.00,VWS V13.00,2013-03-21 23:48:00,
2013-03-21 19:53:00,45.4,25.9,29.84,WNW,302,12.0,12.0,46,0.00,,SKC,0.00,VWS V13.00,2013-03-21 23:53:00,
2013-03-21 19:58:00,45.2,25.7,29.84,NW,325,5.0,9.0,46,0.00,,SKC,0.00,VWS V13.00,2013-03-21 23:58:00,
2013-03-21 20:03:00,45.0,25.5,29.85,NE,38,4.0,5.0,46,0.00,,SKC,0.00,VWS V13.00,2013-03-22 00:03:00,
2013-03-21 20:08:00,44.9,25.9,29.85,NNE,30,3.0,9.0,47,0.00,,SKC,0.00,VWS V13.00,2013-03-22 00:08:00,
2013-03-21 20:13:00,44.3,26.4,29.86,NNW,340,1.0,9.0,49,0.00,,SKC,0.00,VWS V13.00,2013-03-22 00:13:00,
2013-03-21 20:18:00,43.9,26.5,29.86,North,355,3.0,6.0,50,0.00,,SKC,0.00,VWS V13.00,2013-03-22 00:18:00,
2013-03-21 20:23:00,43.4,26.0,29.86,North,5,4.0,6.0,50,0.00,,SKC,0.00,VWS V13.00,2013-03-22 00:23:00,
2013-03-21 20:28:00,43.1,26.2,29.87,North,360,3.0,7.0,51,0.00,,SKC,0.00,VWS V13.00,2013-03-22 00:28:00,
2013-03-21 20:33:00,42.8,26.4,29.87,NNE,22,3.0,8.0,52,0.00,,SKC,0.00,VWS V13.00,2013-03-22 00:33:00,
2013-03-21 20:38:00,42.6,26.2,29.87,WNW,290,5.0,9.0,52,0.00,,SKC,0.00,VWS V13.00,2013-03-22 00:38:00,
2013-03-21 20:43:00,42.4,26.5,29.88,North,360,3.0,5.0,53,0.00,,SKC,0.00,VWS V13.00,2013-03-22 00:43:00,
2013-03-21 20:48:00,42.2,26.3,29.88,North,350,4.0,5.0,53,0.00,,SKC,0.00,VWS V13.00,2013-03-22 00:48:00,
2013-03-21 20:53:00,42.0,26.1,29.88,NW,324,4.0,7.0,53,0.00,,SKC,0.00,VWS V13.00,2013-03-22 00:53:00,
2013-03-21 20:58:00,41.7,26.3,29.88,NNW,336,6.0,6.0,54,0.00,,SKC,0.00,VWS V13.00,2013-03-22 00:58:00,
2013-03-21 21:03:00,41.5,26.1,29.89,NNW,329,6.0,10.0,54,0.00,,SKC,0.00,VWS V13.00,2013-03-22 01:03:00,
2013-03-21 21:08:00,41.3,25.9,29.89,NNW,337,4.0,10.0,54,0.00,,SKC,0.00,VWS V13.00,2013-03-22 01:08:00,
2013-03-21 21:13:00,41.2,25.8,29.89,North,360,2.0,7.0,54,0.00,,SKC,0.00,VWS V13.00,2013-03-22 01:13:00,
2013-03-21 21:18:00,41.0,25.6,29.90,NNW,331,3.0,7.0,54,0.00,,SKC,0.00,VWS V13.00,2013-03-22 01:18:00,
2013-03-21 21:23:00,40.8,25.5,29.90,NNW,342,3.0,8.0,54,0.00,,SKC,0.00,VWS V13.00,2013-03-22 01:23:00,
2013-03-21 21:28:00,40.6,25.3,29.90,NW,325,2.0,11.0,54,0.00,,SKC,0.00,VWS V13.00,2013-03-22 01:28:00,
2013-03-21 21:33:00,40.4,25.1,29.91,NW,323,5.0,9.0,54,0.00,,SKC,0.00,VWS V13.00,2013-03-22 01:33:00,
2013-03-21 21:38:00,40.3,25.0,29.91,NNW,345,3.0,10.0,54,0.00,,SKC,0.00,VWS V13.00,2013-03-22 01:38:00,
2013-03-21 21:43:00,40.1,24.4,29.91,NW,323,6.0,8.0,53,0.00,,SKC,0.00,VWS V13.00,2013-03-22 01:43:00,
2013-03-21 21:48:00,40.0,24.3,29.92,NW,311,5.0,12.0,53,0.00,,SKC,0.00,VWS V13.00,2013-03-22 01:48:00,
2013-03-21 21:53:00,39.8,24.1,29.92,NNW,331,5.0,10.0,53,0.00,,SKC,0.00,VWS V13.00,2013-03-22 01:53:00,
2013-03-21 21:58:00,39.7,24.0,29.92,North,360,11.0,11.0,53,0.00,,SKC,0.00,VWS V13.00,2013-03-22 01:58:00,
2013-03-21 22:03:00,39.5,23.4,29.93,North,355,1.0,8.0,52,0.00,,SKC,0.00,VWS V13.00,2013-03-22 02:03:00,
2013-03-21 22:08:00,39.4,23.2,29.93,North,355,5.0,11.0,52,0.00,,SKC,0.00,VWS V13.00,2013-03-22 02:08:00,
2013-03-21 22:13:00,39.2,23.1,29.93,NNW,344,11.0,11.0,52,0.00,,SKC,0.00,VWS V13.00,2013-03-22 02:13:00,
2013-03-21 22:18:00,39.1,23.0,29.93,NNW,340,3.0,13.0,52,0.00,,SKC,0.00,VWS V13.00,2013-03-22 02:18:00,
2013-03-21 22:23:00,38.9,22.3,29.93,North,355,11.0,12.0,51,0.00,,SKC,0.00,VWS V13.00,2013-03-22 02:23:00,
2013-03-21 22:28:00,38.8,22.2,29.93,NW,323,9.0,15.0,51,0.00,,SKC,0.00,VWS V13.00,2013-03-22 02:28:00,
2013-03-21 22:33:00,38.6,22.0,29.93,NW,314,5.0,9.0,51,0.00,,SKC,0.00,VWS V13.00,2013-03-22 02:33:00,
2013-03-21 22:38:00,38.4,21.9,29.93,NW,311,5.0,12.0,51,0.00,,SKC,0.00,VWS V13.00,2013-03-22 02:38:00,
2013-03-21 22:43:00,38.3,21.8,29.94,North,5,2.0,9.0,51,0.00,,SKC,0.00,VWS V13.00,2013-03-22 02:43:00,
2013-03-21 22:48:00,38.1,21.6,29.94,NW,308,10.0,13.0,51,0.00,,SKC,0.00,VWS V13.00,2013-03-22 02:48:00,
2013-03-21 22:53:00,38.0,21.5,29.94,North,355,4.0,9.0,51,0.00,,SKC,0.00,VWS V13.00,2013-03-22 02:53:00,
2013-03-21 22:58:00,37.8,21.3,29.94,North,350,9.0,10.0,51,0.00,,SKC,0.00,VWS V13.00,2013-03-22 02:58:00,
2013-03-21 23:03:00,37.7,21.2,29.94,NNW,336,9.0,10.0,51,0.00,,SKC,0.00,VWS V13.00,2013-03-22 03:03:00,
2013-03-21 23:08:00,37.6,21.1,29.94,NNW,343,7.0,10.0,51,0.00,,SKC,0.00,VWS V13.00,2013-03-22 03:08:00,
2013-03-21 23:13:00,37.4,20.9,29.95,North,5,4.0,10.0,51,0.00,,SKC,0.00,VWS V13.00,2013-03-22 03:13:00,
2013-03-21 23:18:00,37.3,20.9,29.95,North,355,3.0,9.0,51,0.00,,SKC,0.00,VWS V13.00,2013-03-22 03:18:00,
2013-03-21 23:23:00,37.1,20.7,29.95,NW,311,4.0,10.0,51,0.00,,SKC,0.00,VWS V13.00,2013-03-22 03:23:00,
2013-03-21 23:28:00,36.9,20.5,29.95,NNW,328,2.0,12.0,51,0.00,,SKC,0.00,VWS V13.00,2013-03-22 03:28:00,
2013-03-21 23:33:00,36.8,20.4,29.95,NNW,336,2.0,12.0,51,0.00,,SKC,0.00,VWS V13.00,2013-03-22 03:33:00,
2013-03-21 23:38:00,36.6,20.2,29.95,NNW,340,7.0,13.0,51,0.00,,SKC,0.00,VWS V13.00,2013-03-22 03:38:00,
2013-03-21 23:43:00,36.4,20.0,29.95,NNW,338,8.0,8.0,51,0.00,,SKC,0.00,VWS V13.00,2013-03-22 03:43:00,
2013-03-21 23:48:00,36.3,19.9,29.96,NNW,348,5.0,7.0,51,0.00,,SKC,0.00,VWS V13.00,2013-03-22 03:48:00,
2013-03-21 23:53:00,36.2,19.8,29.96,NNE,17,3.0,7.0,51,0.00,,SKC,0.00,VWS V13.00,2013-03-22 03:53:00,
2013-03-21 23:58:00,36.0,19.6,29.96,NW,307,9.0,12.0,51,0.00,,SKC,0.00,VWS V13.00,2013-03-22 03:58:00,